Time;durP1;ratioP1;P1;durP2;ratioP2;P2;SDS_P1;SDS_P2;PMS_P1;PMS_P2;Temp;Humidity;BMP_temperature;BMP_pressure;BME280_temperature;BME280_humidity;BME280_pressure;Samples;Min_cycle;Max_cycle;Signal;HPM_P1;HPM_P2
2024/01/06 00:00:49;;;;;;;38.08;23.63;;;;;;;6.72;68.44;94436.00;4203091;28;20048;-65
2024/01/06 00:02:51;;;;;;;42.15;25.38;;;;;;;6.65;68.81;94440.16;4192632;28;20054;-66
2024/01/06 00:04:53;;;;;;;37.97;22.73;;;;;;;6.80;68.97;94435.28;4198904;28;20057;-66
2024/01/06 00:06:55;;;;;;;34.88;22.30;;;;;;;7.06;68.52;94422.44;4198955;28;20475;-67
2024/01/06 00:08:57;;;;;;;37.22;22.90;;;;;;;7.17;67.88;94411.81;4194617;28;20048;-67
2024/01/06 00:11:02;;;;;;;36.88;24.02;;;;;;;7.36;67.45;94410.91;4206151;28;20113;-66
2024/01/06 00:13:04;;;;;;;39.90;23.42;;;;;;;7.47;66.72;94397.66;4193504;28;20141;-67
2024/01/06 00:15:06;;;;;;;35.45;22.55;;;;;;;7.50;67.21;94417.41;4198812;28;20067;-66
2024/01/06 00:17:08;;;;;;;42.80;22.55;;;;;;;7.65;66.38;94433.34;4198103;28;20052;-68
2024/01/06 00:19:10;;;;;;;38.40;21.67;;;;;;;7.80;66.13;94431.88;4192119;28;20089;-65
2024/01/06 00:21:13;;;;;;;34.08;21.50;;;;;;;7.94;65.41;94435.75;4203942;28;20052;-67
2024/01/06 00:23:14;;;;;;;35.67;22.17;;;;;;;7.99;65.01;94439.53;4198895;28;20533;-67
2024/01/06 00:25:17;;;;;;;39.30;24.27;;;;;;;7.69;65.47;94442.53;4207818;28;20155;-66
2024/01/06 00:27:18;;;;;;;39.13;25.65;;;;;;;7.46;66.03;94435.09;4204758;28;20051;-66
2024/01/06 00:29:20;;;;;;;44.45;27.13;;;;;;;7.37;67.08;94423.78;4207773;28;20486;-64
2024/01/06 00:31:22;;;;;;;51.30;27.50;;;;;;;7.31;67.00;94437.41;4198968;28;20048;-64
2024/01/06 00:33:24;;;;;;;45.75;27.42;;;;;;;7.43;67.57;94455.44;4193860;28;20083;-67
2024/01/06 00:35:26;;;;;;;43.53;27.38;;;;;;;7.58;66.76;94452.19;4194332;28;20055;-65
2024/01/06 00:37:28;;;;;;;42.55;28.48;;;;;;;7.64;66.11;94444.75;4201867;28;20496;-66
2024/01/06 00:39:30;;;;;;;48.65;30.23;;;;;;;7.41;66.66;94447.75;4197093;28;20055;-67
2024/01/06 00:41:32;;;;;;;77.22;48.40;;;;;;;7.09;67.57;94451.63;4205577;28;20582;-68
2024/01/06 00:43:34;;;;;;;89.03;52.80;;;;;;;6.60;70.29;94445.75;4205115;28;20498;-65
2024/01/06 00:45:35;;;;;;;91.32;56.75;;;;;;;6.63;70.06;94432.47;4196214;28;20679;-66
2024/01/06 00:47:39;;;;;;;85.35;53.08;;;;;;;6.65;70.07;94421.94;4199573;28;20123;-67
2024/01/06 00:49:41;;;;;;;;;;;;;;;6.72;70.48;94426.41;4203152;28;20049;-68
2024/01/06 00:51:43;;;;;;;75.70;47.97;;;;;;;6.90;70.05;94423.03;4204487;28;20319;-68
2024/01/06 00:53:45;;;;;;;84.70;49.83;;;;;;;7.03;69.09;94420.94;4195330;28;20047;-68
2024/01/06 00:55:47;;;;;;;73.93;46.60;;;;;;;7.14;69.40;94419.91;4192353;28;20048;-68
2024/01/06 00:57:49;;;;;;;68.70;42.58;;;;;;;7.16;68.60;94423.19;4206540;28;20501;-68
2024/01/06 00:59:52;;;;;;;77.22;43.55;;;;;;;7.04;68.98;94409.56;4200192;28;20059;-67
2024/01/06 01:01:53;;;;;;;69.78;44.03;;;;;;;6.97;70.12;94432.75;4197778;28;20386;-64
2024/01/06 01:03:55;;;;;;;69.05;41.63;;;;;;;7.07;69.69;94437.91;4196427;28;20062;-67
2024/01/06 01:05:57;;;;;;;58.85;40.78;;;;;;;7.03;69.48;94420.94;4195193;28;20457;-66
2024/01/06 01:07:59;;;;;;;65.53;43.22;;;;;;;6.99;69.93;94432.63;4197156;28;20086;-67
2024/01/06 01:10:01;;;;;;;63.53;39.95;;;;;;;7.10;69.94;94431.63;4205464;28;20060;-68
2024/01/06 01:12:03;;;;;;;64.57;40.83;;;;;;;7.23;68.94;94418.22;4192939;28;20044;-65
2024/01/06 01:14:05;;;;;;;61.13;37.92;;;;;;;7.29;69.14;94410.69;4199064;28;20044;-66
2024/01/06 01:16:07;;;;;;;62.22;38.28;;;;;;;7.37;68.87;94413.34;4200884;28;20094;-65
2024/01/06 01:18:09;;;;;;;58.05;38.63;;;;;;;7.51;68.42;94411.22;4205861;28;20044;-65
2024/01/06 01:20:11;;;;;;;63.83;40.63;;;;;;;7.30;68.37;94407.09;4204553;28;20162;-67
2024/01/06 01:22:13;;;;;;;61.08;39.78;;;;;;;7.32;69.09;94415.59;4210749;28;20323;-68
2024/01/06 01:24:15;;;;;;;60.03;38.03;;;;;;;7.37;68.65;94409.94;4206892;28;20172;-66
2024/01/06 01:26:17;;;;;;;61.05;41.28;;;;;;;7.30;68.52;94407.09;4200709;28;20048;-68
2024/01/06 01:28:19;;;;;;;59.63;39.03;;;;;;;7.33;69.58;94411.19;4204432;28;20412;-67
2024/01/06 01:30:21;;;;;;;61.33;38.55;;;;;;;7.43;68.70;94411.13;4202799;28;20048;-68
2024/01/06 01:32:23;;;;;;;61.63;38.25;;;;;;;7.49;69.01;94403.53;4197668;28;20115;-66
2024/01/06 01:34:25;;;;;;;57.75;38.92;;;;;;;7.54;68.41;94400.50;4204052;28;20067;-67
2024/01/06 01:36:27;;;;;;;55.60;37.75;;;;;;;7.61;68.33;94396.31;4202130;28;20447;-67
2024/01/06 01:38:29;;;;;;;62.47;38.28;;;;;;;7.66;67.77;94391.50;4205045;28;20052;-66
2024/01/06 01:40:31;;;;;;;65.60;39.35;;;;;;;7.68;68.15;94393.94;4202051;28;20198;-66
2024/01/06 01:42:33;;;;;;;62.03;38.13;;;;;;;7.70;67.84;94389.38;4202187;28;20067;-68
2024/01/06 01:44:35;;;;;;;59.00;38.30;;;;;;;7.78;68.00;94381.66;4195071;28;20271;-66
2024/01/06 01:46:37;;;;;;;66.05;38.47;;;;;;;7.83;67.02;94376.81;4204946;28;20627;-65
2024/01/06 01:48:39;;;;;;;61.03;37.10;;;;;;;7.87;67.12;94386.00;4200952;28;20070;-67
2024/01/06 01:50:42;;;;;;;57.65;38.78;;;;;;;7.66;67.77;94375.00;4202347;28;20044;-68
2024/01/06 01:52:43;;;;;;;55.50;37.63;;;;;;;7.64;67.96;94375.19;4203393;28;20129;-68
2024/01/06 01:54:45;;;;;;;53.90;37.38;;;;;;;7.70;68.12;94377.19;4201733;28;20410;-66
2024/01/06 01:56:47;;;;;;;57.47;37.10;;;;;;;7.78;67.90;94379.84;4202791;28;20510;-66
2024/01/06 01:58:49;;;;;;;53.72;32.63;;;;;;;7.83;66.89;94382.03;4208611;28;20286;-66
2024/01/06 02:00:51;;;;;;;48.72;29.48;;;;;;;7.87;66.88;94372.94;4199652;28;20070;-67
2024/01/06 02:02:53;;;;;;;49.30;29.65;;;;;;;7.74;67.02;94375.94;4196694;28;20063;-65
2024/01/06 02:04:56;;;;;;;49.63;29.83;;;;;;;7.71;67.01;94380.63;4201275;28;20124;-66
2024/01/06 02:06:58;;;;;;;49.30;26.27;;;;;;;7.63;67.36;94370.91;4199991;28;20120;-66
2024/01/06 02:09:00;;;;;;;48.55;30.80;;;;;;;7.49;67.80;94366.25;4210912;28;20059;-66
2024/01/06 02:11:03;;;;;;;49.55;30.52;;;;;;;7.01;68.61;94362.94;4204998;28;20151;-65
2024/01/06 02:13:09;;;;;;;44.97;30.73;;;;;;;7.08;69.65;94363.22;4205313;28;20526;-66
2024/01/06 02:15:11;;;;;;;51.28;29.92;;;;;;;7.21;69.12;94355.88;4197423;28;20071;-69
2024/01/06 02:17:13;;;;;;;47.75;30.33;;;;;;;7.31;68.53;94347.97;4195682;28;20493;-66
2024/01/06 02:19:19;;;;;;;52.70;30.58;;;;;;;7.44;68.45;94363.25;4209714;28;20052;-66
2024/01/06 02:21:22;;;;;;;42.13;30.45;;;;;;;7.50;68.25;94360.06;4204213;28;20215;-67
2024/01/06 02:23:25;;;;;;;44.05;28.60;;;;;;;7.56;68.26;94351.63;4207970;28;20114;-67
2024/01/06 02:25:27;;;;;;;47.00;28.75;;;;;;;7.67;67.48;94348.00;4209892;28;20426;-65
2024/01/06 02:27:28;;;;;;;41.83;27.67;;;;;;;7.71;66.62;94336.28;4207729;28;20402;-65
2024/01/06 02:29:30;;;;;;;43.00;26.65;;;;;;;7.69;67.46;94326.00;4207299;28;20134;-66
2024/01/06 02:31:32;;;;;;;45.38;26.33;;;;;;;7.73;67.04;94329.13;4196216;28;20122;-66
2024/01/06 02:33:34;;;;;;;39.03;24.63;;;;;;;7.80;66.91;94324.94;4196369;28;20048;-66
2024/01/06 02:35:36;;;;;;;40.22;26.90;;;;;;;7.86;66.06;94323.53;4199372;28;20083;-66
2024/01/06 02:37:38;;;;;;;41.83;27.17;;;;;;;7.82;66.68;94327.41;4206378;28;20507;-66
2024/01/06 02:39:40;;;;;;;52.25;26.10;;;;;;;7.79;66.70;94323.31;4201834;28;20068;-66
2024/01/06 02:41:42;;;;;;;46.45;28.02;;;;;;;7.66;66.89;94323.72;4196591;28;20106;-66
2024/01/06 02:43:44;;;;;;;42.33;26.88;;;;;;;7.57;67.10;94322.81;4201661;28;20048;-66
2024/01/06 02:45:46;;;;;;;47.63;26.75;;;;;;;7.63;67.80;94323.19;4200635;28;20043;-67
2024/01/06 02:47:49;;;;;;;39.80;25.23;;;;;;;7.51;67.79;94328.63;4196868;28;20045;-66
2024/01/06 02:49:51;;;;;;;39.58;25.40;;;;;;;7.54;67.66;94320.50;4206299;28;20058;-66
2024/01/06 02:51:53;;;;;;;34.88;25.23;;;;;;;7.57;68.60;94307.19;4206314;28;20048;-67
2024/01/06 02:53:55;;;;;;;45.75;25.25;;;;;;;7.52;67.89;94303.38;4201972;28;20047;-67
2024/01/06 02:55:56;;;;;;;39.63;25.77;;;;;;;7.53;68.02;94307.63;4205757;28;20087;-67
2024/01/06 02:57:58;;;;;;;39.72;24.02;;;;;;;7.51;67.84;94305.16;4192352;28;20110;-66
2024/01/06 03:00:00;;;;;;;36.83;23.67;;;;;;;7.57;68.31;94303.75;4203151;28;20048;-66
2024/01/06 03:02:02;;;;;;;38.20;23.27;;;;;;;7.58;68.03;94302.78;4202582;28;20054;-65
2024/01/06 03:04:04;;;;;;;38.28;21.75;;;;;;;7.63;67.47;94297.13;4202917;28;20264;-67
2024/01/06 03:06:06;;;;;;;43.03;22.65;;;;;;;7.54;67.41;94291.03;4193172;28;20066;-66
2024/01/06 03:08:08;;;;;;;33.58;22.60;;;;;;;7.57;67.69;94288.09;4201873;28;20938;-65
2024/01/06 03:10:10;;;;;;;33.42;23.23;;;;;;;7.65;67.44;94289.97;4194103;28;20048;-65
2024/01/06 03:12:12;;;;;;;33.85;22.10;;;;;;;7.61;66.51;94294.66;4191660;28;20140;-67
2024/01/06 03:14:15;;;;;;;45.40;22.55;;;;;;;7.59;67.26;94297.44;4195716;28;20068;-68
2024/01/06 03:16:17;;;;;;;35.58;22.40;;;;;;;7.54;67.33;94297.03;4196729;28;20076;-67
2024/01/06 03:18:19;;;;;;;32.80;22.00;;;;;;;7.52;67.51;94291.16;4201435;28;20398;-64
2024/01/06 03:20:21;;;;;;;36.95;22.05;;;;;;;7.56;68.07;94295.09;4203169;28;20136;-65
2024/01/06 03:22:23;;;;;;;35.35;22.90;;;;;;;7.65;67.17;94287.34;4196422;28;20064;-68
2024/01/06 03:24:26;;;;;;;35.65;21.95;;;;;;;7.74;67.04;94289.88;4197294;28;20111;-67
2024/01/06 03:26:28;;;;;;;41.30;22.95;;;;;;;7.80;66.51;94288.44;4203967;28;20117;-67
2024/01/06 03:28:30;;;;;;;40.95;22.83;;;;;;;7.76;66.64;94287.91;4206333;28;20054;-65
2024/01/06 03:30:32;;;;;;;30.50;21.38;;;;;;;7.77;66.43;94296.59;4206279;28;20048;-67
2024/01/06 03:32:34;;;;;;;34.38;20.52;;;;;;;7.76;66.42;94297.53;4198195;28;20247;-66
2024/01/06 03:34:36;;;;;;;33.95;20.52;;;;;;;7.79;66.30;94295.47;4206210;28;20143;-68
2024/01/06 03:36:39;;;;;;;28.27;17.88;;;;;;;7.80;65.63;94285.84;4207218;28;20084;-66
2024/01/06 03:38:41;;;;;;;24.75;17.42;;;;;;;7.75;65.38;94285.47;4202715;28;20044;-67
2024/01/06 03:40:43;;;;;;;28.08;18.25;;;;;;;7.48;65.65;94281.19;4200903;28;20047;-66
2024/01/06 03:42:45;;;;;;;35.78;19.08;;;;;;;7.37;66.11;94271.81;4201509;28;20052;-67
2024/01/06 03:44:47;;;;;;;30.75;18.65;;;;;;;7.38;66.30;94276.88;4205350;28;20059;-66
2024/01/06 03:46:48;;;;;;;28.70;17.90;;;;;;;7.44;66.80;94282.44;4196557;28;20056;-68
2024/01/06 03:48:50;;;;;;;25.63;16.10;;;;;;;7.56;65.93;94287.28;4207750;28;20043;-66
2024/01/06 03:50:52;;;;;;;30.55;17.55;;;;;;;7.50;65.18;94292.28;4207004;28;20052;-67
2024/01/06 03:52:54;;;;;;;25.10;15.65;;;;;;;7.54;65.52;94288.41;4204734;28;20580;-68
2024/01/06 03:54:56;;;;;;;25.58;15.32;;;;;;;7.38;65.02;94271.66;4208121;28;20546;-66
2024/01/06 03:56:58;;;;;;;25.58;15.55;;;;;;;7.39;64.98;94286.31;4200161;28;20471;-66
2024/01/06 03:59:00;;;;;;;26.00;14.75;;;;;;;7.36;64.96;94276.22;4202158;28;20059;-65
2024/01/06 04:01:02;;;;;;;26.02;15.10;;;;;;;7.43;65.67;94280.84;4206022;28;20083;-67
2024/01/06 04:03:05;;;;;;;23.77;14.13;;;;;;;7.52;65.26;94278.13;4203383;28;20056;-66
2024/01/06 04:05:07;;;;;;;23.52;14.02;;;;;;;7.41;64.79;94286.19;4198403;28;20142;-66
2024/01/06 04:07:09;;;;;;;24.88;14.82;;;;;;;7.41;65.15;94285.38;4202665;28;20095;-66
2024/01/06 04:09:12;;;;;;;22.98;14.02;;;;;;;7.42;64.26;94280.03;4202920;28;20505;-66
2024/01/06 04:11:16;;;;;;;22.52;13.93;;;;;;;7.39;65.04;94278.50;4195957;28;20388;-66
2024/01/06 04:13:18;;;;;;;25.67;15.05;;;;;;;7.25;65.29;94267.78;4194644;28;20048;-66
2024/01/06 04:15:20;;;;;;;22.60;14.32;;;;;;;7.28;65.58;94273.53;4202005;28;20550;-70
2024/01/06 04:17:22;;;;;;;24.88;15.00;;;;;;;7.34;65.72;94272.94;4193771;28;20054;-67
2024/01/06 04:19:24;;;;;;;23.50;13.95;;;;;;;7.45;65.48;94271.06;4206368;28;20158;-67
2024/01/06 04:21:26;;;;;;;23.45;13.82;;;;;;;7.51;64.98;94278.28;4202024;28;20056;-67
2024/01/06 04:23:28;;;;;;;21.02;13.20;;;;;;;7.57;64.04;94278.50;4200887;28;20337;-67
2024/01/06 04:25:30;;;;;;;22.85;13.25;;;;;;;7.48;64.02;94273.38;4202426;28;20047;-66
2024/01/06 04:27:33;;;;;;;26.42;12.93;;;;;;;7.50;64.38;94282.66;4198852;28;20066;-66
2024/01/06 04:29:36;;;;;;;20.65;13.15;;;;;;;7.58;64.23;94272.31;4207607;28;20150;-68
2024/01/06 04:31:37;;;;;;;24.83;13.68;;;;;;;7.47;64.09;94282.97;4193320;28;20058;-66
2024/01/06 04:33:40;;;;;;;20.45;13.63;;;;;;;7.50;64.69;94303.53;4201004;28;20048;-68
2024/01/06 04:35:42;;;;;;;23.73;13.48;;;;;;;7.59;64.11;94296.59;4200844;28;20048;-67
2024/01/06 04:37:44;;;;;;;21.13;13.20;;;;;;;7.35;64.42;94292.81;4197808;28;20052;-66
2024/01/06 04:39:46;;;;;;;24.98;14.88;;;;;;;7.17;65.41;94297.22;4199768;28;20186;-68
2024/01/06 04:41:48;;;;;;;24.15;14.68;;;;;;;7.12;65.98;94294.22;4202762;28;20402;-66
2024/01/06 04:43:50;;;;;;;28.67;16.65;;;;;;;7.11;65.87;94296.00;4208463;28;20050;-66
2024/01/06 04:45:52;;;;;;;24.65;15.95;;;;;;;6.80;67.04;94287.72;4206271;28;20052;-67
2024/01/06 04:47:54;;;;;;;26.42;15.43;;;;;;;6.81;67.86;94297.16;4196931;28;20052;-66
2024/01/06 04:49:56;;;;;;;28.25;17.17;;;;;;;6.94;67.68;94302.81;4208503;28;20051;-67
2024/01/06 04:51:58;;;;;;;27.77;15.35;;;;;;;7.04;67.19;94301.97;4205810;28;20116;-67
2024/01/06 04:54:00;;;;;;;31.70;17.40;;;;;;;7.11;66.57;94303.00;4204552;28;20066;-68
2024/01/06 04:56:01;;;;;;;28.50;16.40;;;;;;;7.03;66.99;94316.75;4204792;28;20051;-65
2024/01/06 04:58:03;;;;;;;26.08;15.68;;;;;;;7.14;66.89;94313.13;4207465;28;20606;-66
2024/01/06 05:00:06;;;;;;;30.23;16.75;;;;;;;7.13;66.71;94296.69;4211461;28;20074;-68
2024/01/06 05:02:08;;;;;;;27.70;16.42;;;;;;;6.86;67.67;94289.75;4207714;28;20073;-67
2024/01/06 05:04:10;;;;;;;28.63;17.20;;;;;;;6.79;67.78;94299.09;4208614;28;20048;-65
2024/01/06 05:06:13;;;;;;;26.10;16.73;;;;;;;6.73;67.91;94289.25;4197949;28;20479;-66
2024/01/06 05:08:14;;;;;;;26.35;16.77;;;;;;;6.64;68.59;94277.09;4209478;28;20398;-66
2024/01/06 05:10:17;;;;;;;26.80;16.83;;;;;;;6.72;68.85;94272.81;4201652;28;20048;-68
2024/01/06 05:12:19;;;;;;;28.63;15.90;;;;;;;6.86;68.71;94279.31;4209892;28;20048;-66
2024/01/06 05:14:21;;;;;;;24.67;16.35;;;;;;;6.96;67.59;94274.84;4201280;28;20101;-66
2024/01/06 05:16:22;;;;;;;26.63;16.67;;;;;;;6.80;68.22;94272.09;4199264;28;20076;-67
2024/01/06 05:18:24;;;;;;;31.70;17.25;;;;;;;6.91;68.22;94286.69;4197409;28;20048;-67
2024/01/06 05:20:26;;;;;;;24.55;16.10;;;;;;;6.89;67.51;94278.22;4203712;28;20083;-68
2024/01/06 05:22:28;;;;;;;27.92;16.58;;;;;;;6.84;68.39;94273.44;4207865;28;20129;-67
2024/01/06 05:24:30;;;;;;;24.52;15.02;;;;;;;6.90;68.23;94265.00;4204849;28;20490;-67
2024/01/06 05:26:32;;;;;;;30.42;16.08;;;;;;;6.78;68.39;94258.41;4199025;28;20131;-68
2024/01/06 05:28:34;;;;;;;27.10;15.05;;;;;;;6.85;68.38;94256.84;4210504;28;20410;-69
2024/01/06 05:30:36;;;;;;;28.25;15.10;;;;;;;6.95;68.06;94264.59;4207010;28;20295;-68
2024/01/06 05:32:38;;;;;;;26.35;15.38;;;;;;;6.92;67.20;94257.88;4197329;28;20059;-68
2024/01/06 05:34:40;;;;;;;27.65;16.08;;;;;;;6.85;67.73;94256.84;4195632;28;20045;-67
2024/01/06 05:36:42;;;;;;;26.77;15.57;;;;;;;6.90;67.79;94256.41;4196676;28;20083;-69
2024/01/06 05:38:44;;;;;;;25.58;15.52;;;;;;;6.94;67.50;94255.94;4203778;28;20501;-68
2024/01/06 05:40:46;;;;;;;28.13;16.02;;;;;;;6.63;67.67;94241.66;4201190;28;20321;-68
2024/01/06 05:42:48;;;;;;;26.60;15.70;;;;;;;6.68;67.61;94261.06;4209241;28;20151;-68
2024/01/06 05:44:50;;;;;;;21.63;15.35;;;;;;;6.71;67.97;94265.13;4197610;28;20135;-67
2024/01/06 05:46:52;;;;;;;23.00;15.70;;;;;;;6.83;68.05;94261.38;4209836;28;20368;-68
2024/01/06 05:48:55;;;;;;;23.27;15.80;;;;;;;6.80;67.50;94253.03;4207862;28;20040;-68
2024/01/06 05:50:57;;;;;;;23.73;14.13;;;;;;;6.70;67.86;94250.50;4210304;28;20062;-68
2024/01/06 05:52:59;;;;;;;22.27;14.77;;;;;;;6.73;68.07;94256.25;4205756;28;20048;-67
2024/01/06 05:55:01;;;;;;;29.17;15.88;;;;;;;6.84;67.75;94254.38;4209326;28;20449;-67
2024/01/06 05:57:03;;;;;;;22.15;13.95;;;;;;;6.99;67.65;94258.13;4199459;28;20055;-66
2024/01/06 05:59:05;;;;;;;21.42;15.07;;;;;;;6.96;66.90;94248.00;4205186;28;20040;-66
2024/01/06 06:01:07;;;;;;;21.50;13.77;;;;;;;6.97;66.76;94252.25;4199936;28;20676;-67
2024/01/06 06:03:09;;;;;;;22.48;13.65;;;;;;;7.04;66.59;94255.09;4203840;28;20060;-67
2024/01/06 06:05:11;;;;;;;20.70;13.50;;;;;;;7.09;66.66;94252.84;4209665;28;20518;-67
2024/01/06 06:07:14;;;;;;;24.67;13.30;;;;;;;7.13;66.02;94264.59;4204044;28;20048;-67
2024/01/06 06:09:15;;;;;;;17.73;11.50;;;;;;;7.12;65.10;94268.16;4198202;28;20036;-66
2024/01/06 06:11:18;;;;;;;20.77;11.95;;;;;;;7.13;65.26;94238.56;4208634;28;20135;-66
2024/01/06 06:13:20;;;;;;;16.55;11.70;;;;;;;7.18;64.91;94234.53;4209014;28;20056;-69
2024/01/06 06:15:22;;;;;;;21.00;11.73;;;;;;;7.21;64.52;94251.66;4200084;28;20402;-70
2024/01/06 06:17:24;;;;;;;18.83;10.98;;;;;;;7.20;64.44;94252.59;4200922;28;20052;-67
2024/01/06 06:19:27;;;;;;;28.15;11.80;;;;;;;7.11;64.16;94243.91;4199619;28;20060;-67
2024/01/06 06:21:29;;;;;;;16.65;11.52;;;;;;;7.14;64.77;94256.66;4210026;28;20047;-67
2024/01/06 06:23:31;;;;;;;18.23;11.52;;;;;;;7.02;64.91;94246.59;4207000;28;20521;-67
2024/01/06 06:25:33;;;;;;;19.42;11.88;;;;;;;6.96;65.40;94251.41;4200524;28;20448;-66
2024/01/06 06:27:36;;;;;;;19.77;11.95;;;;;;;7.05;65.02;94260.13;4197642;28;20080;-67
2024/01/06 06:29:38;;;;;;;19.63;11.88;;;;;;;7.04;64.90;94258.50;4208721;28;20557;-67
2024/01/06 06:31:42;;;;;;;21.85;14.23;;;;;;;6.87;66.02;94257.50;4196884;28;20473;-68
2024/01/06 06:33:44;;;;;;;24.88;13.63;;;;;;;6.95;66.22;94268.03;4198461;28;20513;-67
2024/01/06 06:35:46;;;;;;;24.20;13.15;;;;;;;6.80;65.99;94259.06;4201397;28;20048;-67
2024/01/06 06:37:47;;;;;;;17.58;11.48;;;;;;;6.62;66.29;94259.03;4198710;28;20075;-68
2024/01/06 06:39:49;;;;;;;22.33;13.40;;;;;;;6.53;67.07;94262.50;4192611;28;20048;-68
2024/01/06 06:41:51;;;;;;;30.23;14.13;;;;;;;6.58;67.08;94262.88;4199236;28;20044;-66
2024/01/06 06:43:54;;;;;;;27.30;15.48;;;;;;;6.37;68.25;94257.94;4208460;28;20040;-68
2024/01/06 06:45:56;;;;;;;23.83;14.95;;;;;;;6.57;68.54;94253.44;4209148;28;20466;-68
2024/01/06 06:47:58;;;;;;;21.80;14.15;;;;;;;6.78;67.24;94270.59;4207656;28;20145;-68
2024/01/06 06:50:00;;;;;;;21.70;14.45;;;;;;;6.86;67.16;94268.06;4208673;28;20054;-69
2024/01/06 06:52:03;;;;;;;26.52;14.27;;;;;;;6.95;66.55;94252.41;4203591;28;20044;-69
2024/01/06 06:54:06;;;;;;;21.65;12.27;;;;;;;6.75;65.32;94253.47;4200414;28;20482;-69
2024/01/06 06:56:08;;;;;;;19.90;11.30;;;;;;;6.73;65.92;94269.25;4199595;28;20491;-67
2024/01/06 06:58:10;;;;;;;20.15;11.85;;;;;;;6.88;66.83;94264.38;4195798;28;20135;-67
2024/01/06 07:00:12;;;;;;;17.70;11.23;;;;;;;6.95;65.93;94247.19;4209697;28;20051;-67
2024/01/06 07:02:14;;;;;;;19.77;10.70;;;;;;;7.08;64.84;94254.63;4209020;28;20048;-68
2024/01/06 07:04:16;;;;;;;18.05;11.35;;;;;;;7.15;64.42;94257.47;4204732;28;20090;-67
2024/01/06 07:06:18;;;;;;;22.45;11.70;;;;;;;7.29;65.72;94256.09;4200203;28;20058;-67
2024/01/06 07:08:20;;;;;;;20.95;12.02;;;;;;;7.02;65.29;94233.56;4194623;28;20066;-68
2024/01/06 07:10:22;;;;;;;22.25;12.35;;;;;;;7.03;65.41;94266.44;4205676;28;20095;-68
2024/01/06 07:12:24;;;;;;;18.52;12.27;;;;;;;7.09;65.59;94256.25;4207072;28;20058;-67
2024/01/06 07:14:26;;;;;;;27.42;12.57;;;;;;;7.17;65.72;94235.50;4200046;28;20062;-67
2024/01/06 07:16:28;;;;;;;29.27;12.10;;;;;;;7.27;64.62;94266.69;4202736;28;20048;-67
2024/01/06 07:18:32;;;;;;;;;;;;;;;7.36;64.66;94250.16;4196096;28;20140;-67
2024/01/06 07:20:34;;;;;;;23.08;14.52;;;;;;;7.11;65.28;94235.28;4196290;28;20353;-68
2024/01/06 07:22:36;;;;;;;24.33;12.90;;;;;;;7.11;65.45;94258.72;4206882;28;20426;-66
2024/01/06 07:24:38;;;;;;;21.77;13.15;;;;;;;7.27;65.66;94248.47;4204821;28;20052;-65
2024/01/06 07:26:40;;;;;;;31.52;14.45;;;;;;;7.41;65.52;94238.47;4205186;28;20086;-66
2024/01/06 07:28:42;;;;;;;23.23;14.25;;;;;;;7.54;64.71;94267.56;4209198;28;20100;-66
2024/01/06 07:30:44;;;;;;;27.88;13.13;;;;;;;7.65;64.01;94250.84;4199350;28;20056;-65
2024/01/06 07:32:47;;;;;;;28.85;13.93;;;;;;;7.54;64.21;94238.88;4204938;28;20499;-64
2024/01/06 07:34:49;;;;;;;23.50;12.02;;;;;;;7.51;64.61;94242.63;4200171;28;20170;-65
2024/01/06 07:36:51;;;;;;;26.75;12.88;;;;;;;7.56;63.60;94247.38;4202265;28;20337;-66
2024/01/06 07:38:54;;;;;;;23.45;12.45;;;;;;;7.65;63.82;94241.25;4209147;28;20444;-67
2024/01/06 07:40:55;;;;;;;26.13;12.73;;;;;;;7.58;67.05;94248.84;4197470;28;20080;-67
2024/01/06 07:42:57;;;;;;;20.58;12.20;;;;;;;7.70;63.84;94248.59;4203601;28;20055;-64
2024/01/06 07:44:59;;;;;;;24.00;13.60;;;;;;;7.79;63.97;94240.69;4208414;28;20048;-69
2024/01/06 07:47:02;;;;;;;27.15;13.77;;;;;;;7.94;64.03;94240.94;4204015;28;20044;-71
2024/01/06 07:49:04;;;;;;;20.13;10.60;;;;;;;8.05;62.38;94250.31;4203137;28;20043;-69
2024/01/06 07:51:06;;;;;;;20.00;11.43;;;;;;;8.03;62.28;94236.59;4208503;28;20052;-66
2024/01/06 07:53:08;;;;;;;19.42;12.43;;;;;;;8.08;62.44;94247.38;4205401;28;20558;-63
2024/01/06 07:55:10;;;;;;;18.90;11.50;;;;;;;7.99;61.70;94246.50;4207984;28;20465;-69
2024/01/06 07:57:12;;;;;;;16.95;11.52;;;;;;;7.95;62.18;94239.97;4198355;28;20049;-75
2024/01/06 07:59:14;;;;;;;14.80;10.40;;;;;;;8.07;61.81;94253.56;4195065;28;20120;-68
2024/01/06 08:01:16;;;;;;;21.45;10.88;;;;;;;8.28;61.68;94247.16;4193633;28;20455;-73
2024/01/06 08:03:18;;;;;;;18.45;11.77;;;;;;;8.44;60.91;94244.66;4193171;28;20118;-69
2024/01/06 08:05:20;;;;;;;22.75;11.77;;;;;;;8.32;60.02;94230.19;4194733;28;20143;-67
2024/01/06 08:07:22;;;;;;;20.67;11.82;;;;;;;8.10;60.38;94240.22;4203422;28;20044;-71
2024/01/06 08:09:24;;;;;;;23.48;12.18;;;;;;;8.02;61.06;94242.78;4197665;28;20044;-70
2024/01/06 08:11:26;;;;;;;23.15;11.00;;;;;;;7.84;61.68;94234.19;4203755;28;20048;-68
2024/01/06 08:13:28;;;;;;;22.02;11.55;;;;;;;8.02;62.16;94244.56;4205499;28;20205;-71
2024/01/06 08:15:32;;;;;;;27.52;11.55;;;;;;;7.92;61.43;94248.13;4196085;28;20155;-79
2024/01/06 08:17:34;;;;;;;20.23;12.02;;;;;;;7.64;62.54;94237.00;4194022;28;20059;-80
2024/01/06 08:19:36;;;;;;;21.30;11.88;;;;;;;7.74;62.77;94247.31;4195684;28;20040;-82
2024/01/06 08:21:38;;;;;;;28.15;11.25;;;;;;;7.88;61.78;94238.97;4204577;28;20051;-74
2024/01/06 08:23:40;;;;;;;20.83;10.02;;;;;;;7.93;61.27;94236.69;4203206;28;20139;-76
2024/01/06 08:25:43;;;;;;;21.65;10.73;;;;;;;8.05;60.80;94245.09;4200170;28;20155;-80
2024/01/06 08:27:45;;;;;;;24.27;10.80;;;;;;;8.18;61.11;94234.22;4201137;28;20094;-75
2024/01/06 08:29:47;;;;;;;23.45;10.50;;;;;;;8.24;60.24;94244.06;4205685;28;20471;-75
2024/01/06 08:31:51;;;;;;;18.00;11.60;;;;;;;8.27;60.00;94235.09;4196769;28;20226;-81
2024/01/06 08:33:55;;;;;;;20.27;10.75;;;;;;;8.18;60.03;94244.66;4206240;28;20040;-75
2024/01/06 08:35:57;;;;;;;20.00;10.98;;;;;;;8.29;59.78;94236.56;4199331;28;20059;-82
2024/01/06 08:37:59;;;;;;;20.00;11.13;;;;;;;8.33;60.76;94252.72;4200969;28;20466;-73
2024/01/06 08:40:01;;;;;;;30.55;13.00;;;;;;;8.42;60.72;94237.97;4202080;28;20079;-75
2024/01/06 08:42:03;;;;;;;21.55;9.77;;;;;;;8.42;59.81;94243.19;4194769;28;20044;-75
2024/01/06 08:44:05;;;;;;;24.13;11.25;;;;;;;8.55;60.37;94240.94;4203631;28;20051;-73
2024/01/06 08:46:07;;;;;;;20.58;10.00;;;;;;;8.54;59.50;94236.69;4205653;28;20055;-75
2024/01/06 08:48:09;;;;;;;21.33;10.95;;;;;;;8.60;59.17;94243.88;4202401;28;20060;-76
2024/01/06 08:50:10;;;;;;;26.70;10.38;;;;;;;8.72;59.53;94252.25;4208070;28;20498;-75
2024/01/06 08:52:12;;;;;;;26.98;13.82;;;;;;;8.87;59.30;94240.22;4206193;28;20051;-73
2024/01/06 08:54:14;;;;;;;32.40;16.13;;;;;;;8.75;59.41;94231.84;4202165;28;20048;-68
2024/01/06 08:56:17;;;;;;;28.63;16.55;;;;;;;8.77;59.97;94237.72;4200093;28;20048;-71
2024/01/06 08:58:19;;;;;;;37.10;17.45;;;;;;;8.90;60.40;94232.06;4201636;28;20503;-71
2024/01/06 09:00:21;;;;;;;36.38;18.75;;;;;;;8.75;60.47;94225.81;4199469;28;20128;-69
2024/01/06 09:02:23;;;;;;;35.90;21.50;;;;;;;8.58;60.24;94228.41;4204250;28;20478;-69
2024/01/06 09:04:25;;;;;;;33.97;21.42;;;;;;;8.48;60.77;94230.31;4190276;28;20076;-65
2024/01/06 09:06:27;;;;;;;48.05;25.05;;;;;;;8.65;60.96;94235.56;4203266;28;20052;-73
2024/01/06 09:08:29;;;;;;;47.70;27.67;;;;;;;8.82;60.54;94222.41;4202571;28;20056;-69
2024/01/06 09:10:31;;;;;;;41.47;28.92;;;;;;;8.83;60.48;94204.94;4195843;28;20048;-71
2024/01/06 09:12:33;;;;;;;48.88;29.50;;;;;;;8.66;60.65;94208.50;4194314;28;20091;-71
2024/01/06 09:14:35;;;;;;;59.50;30.33;;;;;;;8.76;61.40;94202.16;4202948;28;20474;-74
2024/01/06 09:16:37;;;;;;;50.80;31.52;;;;;;;8.70;61.41;94194.16;4194605;28;20068;-66
2024/01/06 09:18:39;;;;;;;61.20;30.00;;;;;;;8.78;60.76;94204.63;4197848;28;20044;-67
2024/01/06 09:20:41;;;;;;;41.90;30.63;;;;;;;8.89;60.52;94213.94;4193683;28;20047;-69
2024/01/06 09:22:43;;;;;;;56.85;29.75;;;;;;;8.96;60.11;94202.69;4192470;28;20052;-66
2024/01/06 09:24:45;;;;;;;48.80;29.58;;;;;;;8.71;61.26;94183.56;4200092;28;20047;-67
2024/01/06 09:26:47;;;;;;;47.38;29.17;;;;;;;8.70;61.12;94188.94;4196113;28;20315;-69
2024/01/06 09:28:49;;;;;;;56.00;33.13;;;;;;;8.73;61.67;94184.22;4201840;28;20127;-68